Time;durP1;ratioP1;P1;durP2;ratioP2;P2;SDS_P1;SDS_P2;PMS_P1;PMS_P2;Temp;Humidity;BMP_temperature;BMP_pressure;BME280_temperature;BME280_humidity;BME280_pressure;Samples;Min_cycle;Max_cycle;Signal;HPM_P1;HPM_P2
2021/12/31 00:00:48;;;;;;;8.30;4.70;;;12.40;99.90;;;;;;5055550;28;21200;-48
2021/12/31 00:03:16;;;;;;;11.38;4.78;;;12.30;99.90;;;;;;5077031;27;20967;-48
2021/12/31 00:05:43;;;;;;;12.30;5.05;;;12.30;99.90;;;;;;5069364;28;20232;-48
2021/12/31 00:08:10;;;;;;;11.85;4.10;;;12.30;99.90;;;;;;5077960;28;20207;-49
2021/12/31 00:10:37;;;;;;;9.57;4.20;;;12.30;99.90;;;;;;5065937;28;20207;-49
2021/12/31 00:13:06;;;;;;;10.18;4.00;;;12.30;99.90;;;;;;5077176;28;20301;-49
2021/12/31 00:15:34;;;;;;;8.18;4.35;;;12.30;99.90;;;;;;5060636;28;20228;-48
2021/12/31 00:18:00;;;;;;;10.25;3.83;;;12.30;99.90;;;;;;5066459;28;20253;-49
2021/12/31 00:20:28;;;;;;;9.68;3.30;;;12.30;99.90;;;;;;5068093;28;20710;-49
2021/12/31 00:25:40;;;;;;;10.10;3.70;;;12.30;99.90;;;;;;5067761;28;20219;-49
2021/12/31 00:28:09;;;;;;;10.13;3.47;;;12.30;99.90;;;;;;5083254;28;20199;-48
2021/12/31 00:30:37;;;;;;;20.23;3.70;;;12.30;99.90;;;;;;5075941;28;20212;-52
2021/12/31 00:33:04;;;;;;;11.70;3.10;;;12.30;99.90;;;;;;5060465;28;20828;-49
2021/12/31 00:35:31;;;;;;;13.10;3.33;;;12.30;99.90;;;;;;5074612;28;20971;-49
2021/12/31 00:37:58;;;;;;;7.35;3.00;;;12.30;99.90;;;;;;5068882;28;20219;-49
2021/12/31 00:40:26;;;;;;;9.73;3.10;;;12.30;99.90;;;;;;5066962;28;20200;-49
2021/12/31 00:42:53;;;;;;;12.88;3.28;;;12.30;99.90;;;;;;5071967;28;20281;-49
2021/12/31 00:45:24;;;;;;;8.90;3.28;;;12.30;99.90;;;;;;5072444;28;21081;-44
2021/12/31 00:47:51;;;;;;;3.75;2.78;;;12.30;99.90;;;;;;5061090;28;20208;-44
2021/12/31 00:50:19;;;;;;;11.35;3.22;;;12.30;99.90;;;;;;5079491;28;20197;-44
2021/12/31 00:52:45;;;;;;;6.30;2.63;;;12.20;99.90;;;;;;5058416;28;20230;-44
2021/12/31 00:55:13;;;;;;;7.82;2.85;;;12.30;99.90;;;;;;5075459;28;20216;-44
2021/12/31 00:57:41;;;;;;;6.15;2.50;;;12.30;99.90;;;;;;5071044;28;20200;-44
2021/12/31 01:00:10;;;;;;;8.07;3.60;;;12.20;99.90;;;;;;5068662;28;20914;-44
2021/12/31 01:02:39;;;;;;;8.65;3.13;;;12.30;99.90;;;;;;5083984;28;20306;-44
2021/12/31 01:05:07;;;;;;;12.02;2.60;;;12.30;99.90;;;;;;5061421;28;20277;-49
2021/12/31 01:07:34;;;;;;;6.40;2.70;;;12.30;99.90;;;;;;5081174;28;20201;-49
2021/12/31 01:10:01;;;;;;;7.20;2.97;;;12.30;99.90;;;;;;5069932;28;21320;-44
2021/12/31 01:12:29;;;;;;;8.32;2.72;;;12.30;99.90;;;;;;5066300;28;20238;-43
2021/12/31 01:15:00;;;;;;;8.57;3.15;;;12.30;99.90;;;;;;5055108;28;20639;-48
2021/12/31 01:17:51;;;;;;;8.98;3.40;;;12.30;99.90;;;;;;5080060;28;20204;-44
2021/12/31 01:20:21;;;;;;;12.18;3.60;;;12.40;99.90;;;;;;5068190;28;20688;-44
2021/12/31 01:22:48;;;;;;;10.88;2.88;;;12.30;99.90;;;;;;5073975;28;20488;-44
2021/12/31 01:25:16;;;;;;;10.60;3.38;;;12.30;99.90;;;;;;5063867;28;20245;-44
2021/12/31 01:27:43;;;;;;;9.50;3.30;;;12.30;99.90;;;;;;5072908;28;20672;-43
2021/12/31 01:30:13;;;;;;;11.43;3.30;;;12.40;99.90;;;;;;5057646;28;20910;-44
2021/12/31 01:32:41;;;;;;;7.68;3.20;;;12.30;99.90;;;;;;5062193;28;20223;-44
2021/12/31 01:35:08;;;;;;;5.82;3.22;;;12.30;99.90;;;;;;5065365;28;20203;-44
2021/12/31 01:37:37;;;;;;;12.77;3.50;;;12.40;99.90;;;;;;5060545;28;20208;-43
2021/12/31 01:40:05;;;;;;;10.63;3.17;;;12.40;99.90;;;;;;5061704;28;21316;-44
2021/12/31 01:42:33;;;;;;;5.43;2.72;;;12.40;99.90;;;;;;5074357;28;20754;-44
2021/12/31 01:45:05;;;;;;;13.10;3.95;;;12.40;99.90;;;;;;5057846;28;20664;-44
2021/12/31 01:47:45;;;;;;;9.25;3.38;;;12.40;99.90;;;;;;5087384;28;20195;-43
2021/12/31 01:50:13;;;;;;;7.40;3.45;;;12.40;99.90;;;;;;5063316;28;20223;-43
2021/12/31 01:52:41;;;;;;;11.02;3.47;;;12.40;99.90;;;;;;5089743;28;20215;-44
2021/12/31 01:55:11;;;;;;;11.30;2.97;;;12.40;99.90;;;;;;5076685;28;20970;-44
2021/12/31 01:57:39;;;;;;;9.73;3.13;;;12.40;99.90;;;;;;5072936;28;20215;-44
2021/12/31 02:00:08;;;;;;;7.55;3.08;;;12.50;99.90;;;;;;5048403;28;20206;-44
2021/12/31 02:02:36;;;;;;;9.77;3.13;;;12.40;99.90;;;;;;5074791;28;21254;-44
2021/12/31 02:05:04;;;;;;;11.05;2.80;;;12.40;99.90;;;;;;5058820;28;20215;-44
2021/12/31 02:07:31;;;;;;;8.73;2.95;;;12.40;99.90;;;;;;5083788;28;20226;-43
2021/12/31 02:09:59;;;;;;;5.70;2.45;;;12.40;99.90;;;;;;5071649;28;21014;-44
2021/12/31 02:12:26;;;;;;;14.15;3.15;;;12.40;99.90;;;;;;5071595;28;21717;-44
2021/12/31 02:14:53;;;;;;;8.15;2.70;;;12.40;99.90;;;;;;5068517;28;20204;-44
2021/12/31 02:17:20;;;;;;;7.22;2.63;;;12.40;99.90;;;;;;5071695;28;20200;-44
2021/12/31 02:19:59;;;;;;;4.82;2.47;;;12.40;99.90;;;;;;5071426;28;20793;-44
2021/12/31 02:22:28;;;;;;;6.85;3.30;;;12.40;99.90;;;;;;5070941;28;21689;-44
2021/12/31 02:24:56;;;;;;;7.82;2.50;;;12.40;99.90;;;;;;5078900;28;20857;-44
2021/12/31 02:27:23;;;;;;;9.43;2.60;;;12.40;99.90;;;;;;5068069;28;20208;-43
2021/12/31 02:29:50;;;;;;;6.60;2.55;;;12.50;99.90;;;;;;5073868;28;20204;-44
2021/12/31 02:32:17;;;;;;;10.65;3.42;;;12.40;99.90;;;;;;5067280;28;20232;-44
2021/12/31 02:34:45;;;;;;;5.55;3.08;;;12.40;99.90;;;;;;5079169;28;20208;-44
2021/12/31 02:37:13;;;;;;;13.07;2.90;;;12.40;99.90;;;;;;5062508;28;20234;-44
2021/12/31 02:39:42;;;;;;;12.20;2.55;;;12.40;99.90;;;;;;5080855;28;20200;-44
2021/12/31 02:42:09;;;;;;;5.90;2.17;;;12.40;99.90;;;;;;5071196;27;20204;-44
2021/12/31 02:44:36;;;;;;;6.75;2.90;;;12.40;99.90;;;;;;5077041;28;20234;-44
2021/12/31 02:47:05;;;;;;;9.77;2.53;;;12.40;99.90;;;;;;5075313;27;20656;-44
2021/12/31 02:49:36;;;;;;;8.35;2.45;;;12.40;99.90;;;;;;5090550;28;20502;-44
2021/12/31 02:52:04;;;;;;;8.70;2.88;;;12.40;99.90;;;;;;5066994;28;20204;-43
2021/12/31 02:54:36;;;;;;;6.78;2.53;;;12.40;99.90;;;;;;5085167;28;20208;-43
2021/12/31 02:57:03;;;;;;;8.25;2.72;;;12.40;99.90;;;;;;5078775;27;20237;-44
2021/12/31 02:59:30;;;;;;;5.97;2.42;;;12.40;99.90;;;;;;5075449;28;20200;-44
2021/12/31 03:01:57;;;;;;;6.15;2.58;;;12.40;99.90;;;;;;5065302;28;20694;-44
2021/12/31 03:04:24;;;;;;;8.45;2.78;;;12.40;99.90;;;;;;5082708;28;21982;-44
2021/12/31 03:06:53;;;;;;;6.15;2.75;;;12.40;99.90;;;;;;5063567;28;20288;-44
2021/12/31 03:09:23;;;;;;;4.78;2.47;;;12.40;99.90;;;;;;5058958;28;20749;-44
2021/12/31 03:11:54;;;;;;;6.68;2.42;;;12.40;99.90;;;;;;5084107;27;20272;-44
2021/12/31 03:14:21;;;;;;;8.55;2.85;;;12.40;99.90;;;;;;5068090;28;21091;-43
2021/12/31 03:16:49;;;;;;;8.10;2.92;;;12.40;99.90;;;;;;5076864;27;20229;-44
2021/12/31 03:19:17;;;;;;;12.10;2.88;;;12.40;99.90;;;;;;5075022;28;20208;-44
2021/12/31 03:21:44;;;;;;;7.68;2.70;;;12.40;99.90;;;;;;5074337;28;20685;-44
2021/12/31 03:24:11;;;;;;;12.82;2.95;;;12.40;99.90;;;;;;5061988;28;20207;-44
2021/12/31 03:26:38;;;;;;;8.70;3.35;;;12.40;99.90;;;;;;5079721;28;20224;-43
2021/12/31 03:29:06;;;;;;;6.80;2.42;;;12.40;99.90;;;;;;5054380;28;20219;-43
2021/12/31 03:31:33;;;;;;;9.73;3.03;;;12.50;99.90;;;;;;5073276;28;20212;-44
2021/12/31 03:34:00;;;;;;;10.25;3.20;;;12.50;99.90;;;;;;5081028;28;20215;-43
2021/12/31 03:36:27;;;;;;;9.55;3.08;;;12.50;99.90;;;;;;5075072;28;20227;-44
2021/12/31 03:38:54;;;;;;;10.98;2.75;;;12.50;99.90;;;;;;5077860;28;20200;-43
2021/12/31 03:41:21;;;;;;;8.02;2.60;;;12.50;99.90;;;;;;5060129;28;20215;-43
2021/12/31 03:43:48;;;;;;;6.70;2.58;;;12.50;99.90;;;;;;5072603;28;20197;-44
2021/12/31 03:46:16;;;;;;;10.65;2.65;;;12.50;99.90;;;;;;5062620;27;20224;-44
2021/12/31 03:48:44;;;;;;;8.32;2.58;;;12.50;99.90;;;;;;5080103;28;20200;-43
2021/12/31 03:51:10;;;;;;;6.22;2.40;;;12.50;99.90;;;;;;5080513;28;20202;-44
2021/12/31 03:53:37;;;;;;;7.03;2.42;;;12.50;99.90;;;;;;5076251;28;20247;-44
2021/12/31 03:56:05;;;;;;;14.18;2.85;;;12.50;99.90;;;;;;5063209;28;20238;-43
2021/12/31 03:58:32;;;;;;;10.13;2.70;;;12.40;99.90;;;;;;5079754;28;20420;-44
2021/12/31 04:00:59;;;;;;;9.00;2.35;;;12.50;99.90;;;;;;5060924;28;20216;-43
2021/12/31 04:03:27;;;;;;;10.10;2.60;;;12.50;99.90;;;;;;5073131;27;20206;-45
2021/12/31 04:05:54;;;;;;;2.88;1.92;;;12.50;99.90;;;;;;5078837;28;20222;-48
2021/12/31 04:08:21;;;;;;;5.90;2.60;;;12.40;99.90;;;;;;5085917;28;20199;-49
2021/12/31 04:10:48;;;;;;;10.18;2.97;;;12.50;99.90;;;;;;5069271;28;20212;-48
2021/12/31 04:13:14;;;;;;;4.93;2.50;;;12.50;99.90;;;;;;5085488;28;20223;-48
2021/12/31 04:15:42;;;;;;;10.52;3.15;;;12.50;99.90;;;;;;5072541;28;20606;-48
2021/12/31 04:18:08;;;;;;;10.07;3.58;;;12.50;99.90;;;;;;5073329;28;20211;-48
2021/12/31 04:20:40;;;;;;;5.80;3.17;;;12.50;99.90;;;;;;5084420;28;20203;-48
2021/12/31 04:23:13;;;;;;;4.22;2.63;;;12.50;99.90;;;;;;5082905;28;20917;-48
2021/12/31 04:25:40;;;;;;;12.15;3.40;;;12.50;99.90;;;;;;5073696;28;20242;-48
2021/12/31 04:28:07;;;;;;;9.02;3.03;;;12.50;99.90;;;;;;5087931;28;20210;-48
2021/12/31 04:30:34;;;;;;;10.18;3.20;;;12.50;99.90;;;;;;5078506;28;20212;-48
2021/12/31 04:33:01;;;;;;;8.23;3.10;;;12.50;99.90;;;;;;5074857;28;20304;-48
2021/12/31 04:35:29;;;;;;;8.57;3.20;;;12.50;99.90;;;;;;5085074;28;20386;-49
2021/12/31 04:37:57;;;;;;;12.13;3.40;;;12.50;99.90;;;;;;5080866;28;20234;-48
2021/12/31 04:40:24;;;;;;;11.50;3.60;;;12.60;99.90;;;;;;5069856;28;20216;-49
2021/12/31 04:42:51;;;;;;;5.75;3.33;;;12.50;99.90;;;;;;5077575;28;20889;-48
2021/12/31 04:45:18;;;;;;;7.38;3.65;;;12.60;99.90;;;;;;5081412;28;20233;-48
2021/12/31 04:47:45;;;;;;;7.68;3.38;;;12.60;99.90;;;;;;5077047;28;20207;-48
2021/12/31 04:50:12;;;;;;;6.72;3.70;;;12.60;99.90;;;;;;5071538;28;20217;-48
2021/12/31 04:52:40;;;;;;;6.60;3.40;;;12.60;99.90;;;;;;5082299;28;20630;-40
2021/12/31 04:55:11;;;;;;;5.35;3.25;;;12.60;99.90;;;;;;5074137;28;20208;-40
2021/12/31 04:57:38;;;;;;;9.27;3.45;;;12.60;99.90;;;;;;5066962;28;20216;-40
2021/12/31 05:00:07;;;;;;;6.10;3.50;;;12.60;99.90;;;;;;5082080;28;20324;-40
2021/12/31 05:02:34;;;;;;;6.40;3.60;;;12.60;99.90;;;;;;5075954;28;20214;-40
2021/12/31 05:05:02;;;;;;;8.70;3.63;;;12.70;99.90;;;;;;5064600;28;20212;-44
2021/12/31 05:07:29;;;;;;;8.90;3.47;;;12.70;99.90;;;;;;5090566;28;20207;-44
2021/12/31 05:09:56;;;;;;;10.60;3.72;;;12.70;99.90;;;;;;5080365;28;20264;-44
2021/12/31 05:12:27;;;;;;;8.02;3.70;;;12.70;99.90;;;;;;5072523;28;20204;-44
2021/12/31 05:14:54;;;;;;;8.00;3.35;;;12.70;99.90;;;;;;5082153;28;20227;-41
2021/12/31 05:17:21;;;;;;;7.30;3.45;;;12.70;99.90;;;;;;5079075;28;20211;-41
2021/12/31 05:19:48;;;;;;;5.75;3.80;;;12.70;99.90;;;;;;5078713;28;20207;-40
2021/12/31 05:22:16;;;;;;;6.07;3.28;;;12.60;99.90;;;;;;5080611;27;20207;-41
2021/12/31 05:24:43;;;;;;;7.25;3.25;;;12.70;99.90;;;;;;5082703;28;20289;-40
2021/12/31 05:27:10;;;;;;;5.85;3.08;;;12.70;99.90;;;;;;5078105;28;20232;-40
2021/12/31 05:29:38;;;;;;;12.20;3.55;;;12.80;99.90;;;;;;5083995;28;20761;-41
2021/12/31 05:32:06;;;;;;;9.38;3.28;;;12.80;99.90;;;;;;5067510;28;20218;-40
2021/12/31 05:34:33;;;;;;;5.25;3.13;;;12.70;99.90;;;;;;5078978;28;20219;-44
2021/12/31 05:37:00;;;;;;;5.47;3.10;;;12.80;99.90;;;;;;5078829;28;20228;-44
2021/12/31 05:39:27;;;;;;;6.05;3.13;;;12.80;99.90;;;;;;5073369;28;20216;-40
2021/12/31 05:41:54;;;;;;;6.70;3.17;;;12.80;99.90;;;;;;5085058;28;20202;-40
2021/12/31 05:44:22;;;;;;;5.90;3.65;;;12.80;99.90;;;;;;5073935;28;20213;-41
2021/12/31 05:46:52;;;;;;;6.22;3.13;;;12.80;99.90;;;;;;5085674;28;21443;-41
2021/12/31 05:49:19;;;;;;;6.32;3.00;;;12.80;99.90;;;;;;5089291;28;20283;-40
2021/12/31 05:51:46;;;;;;;4.68;3.20;;;12.80;99.90;;;;;;5065215;28;20216;-40
2021/12/31 05:54:12;;;;;;;8.45;3.40;;;12.80;99.90;;;;;;5076571;28;20227;-40
2021/12/31 05:56:39;;;;;;;5.10;2.80;;;12.80;99.90;;;;;;5088509;28;20787;-40
2021/12/31 05:59:06;;;;;;;3.53;2.90;;;12.80;99.90;;;;;;5074285;28;20218;-41
2021/12/31 06:01:33;;;;;;;5.03;3.03;;;12.70;99.90;;;;;;5083281;28;20203;-41
2021/12/31 06:04:01;;;;;;;4.70;2.92;;;12.70;99.90;;;;;;5086000;28;20206;-40
2021/12/31 06:06:28;;;;;;;5.55;3.22;;;12.70;99.90;;;;;;5075954;28;20224;-40
2021/12/31 06:08:55;;;;;;;8.63;3.47;;;12.80;99.90;;;;;;5066696;28;20206;-41
2021/12/31 06:11:22;;;;;;;4.05;2.80;;;12.80;99.90;;;;;;5090689;28;20852;-40
2021/12/31 06:13:59;;;;;;;6.45;3.00;;;12.80;99.90;;;;;;5068778;28;20212;-40
2021/12/31 06:16:27;;;;;;;8.07;3.00;;;12.80;99.90;;;;;;5074334;28;20246;-40
2021/12/31 06:18:53;;;;;;;4.57;2.95;;;12.90;99.90;;;;;;5089340;28;20282;-40
2021/12/31 06:21:22;;;;;;;3.08;2.78;;;12.90;99.90;;;;;;5077372;27;20201;-40
2021/12/31 06:23:48;;;;;;;8.13;3.13;;;12.80;99.90;;;;;;5072841;28;20362;-40
2021/12/31 06:26:15;;;;;;;6.80;3.65;;;12.90;99.90;;;;;;5076008;28;20239;-40
2021/12/31 06:28:42;;;;;;;5.22;2.90;;;12.80;99.90;;;;;;5081394;28;20191;-40
2021/12/31 06:31:09;;;;;;;4.80;2.70;;;12.80;99.90;;;;;;5072715;28;20665;-40
2021/12/31 06:33:36;;;;;;;5.65;2.97;;;12.80;99.90;;;;;;5081541;28;20227;-40
2021/12/31 06:36:03;;;;;;;4.88;3.30;;;12.80;99.90;;;;;;5075684;28;20815;-40
2021/12/31 06:38:31;;;;;;;9.95;3.15;;;12.80;99.90;;;;;;5070875;28;20501;-40
2021/12/31 06:40:58;;;;;;;5.43;3.22;;;12.80;99.90;;;;;;5066580;28;20215;-41
2021/12/31 06:43:24;;;;;;;7.93;3.17;;;12.80;99.90;;;;;;5082704;28;20203;-40
2021/12/31 06:45:51;;;;;;;4.53;3.50;;;12.80;99.90;;;;;;5071303;28;20728;-41
2021/12/31 06:48:18;;;;;;;6.15;3.20;;;12.80;99.90;;;;;;5084024;28;20203;-41
2021/12/31 06:50:45;;;;;;;5.78;3.30;;;12.80;99.90;;;;;;5083284;28;20204;-41
2021/12/31 06:53:12;;;;;;;6.18;3.30;;;12.80;99.90;;;;;;5071888;28;20246;-41
2021/12/31 06:55:40;;;;;;;9.73;3.25;;;12.70;99.90;;;;;;5077402;28;20610;-41
2021/12/31 06:58:07;;;;;;;3.95;3.03;;;12.80;99.90;;;;;;5064570;28;20200;-41
2021/12/31 07:00:35;;;;;;;6.85;3.67;;;12.80;99.90;;;;;;5077184;28;20222;-40
2021/12/31 07:03:06;;;;;;;4.95;3.03;;;12.80;99.90;;;;;;5080430;28;20203;-40
2021/12/31 07:05:33;;;;;;;6.55;3.30;;;12.90;99.90;;;;;;5076670;28;20227;-44
2021/12/31 07:08:00;;;;;;;4.57;3.08;;;12.80;99.90;;;;;;5081722;28;20904;-44
2021/12/31 07:10:27;;;;;;;3.28;2.97;;;12.80;99.90;;;;;;5076693;28;20208;-44
2021/12/31 07:12:59;;;;;;;5.22;2.92;;;12.90;99.90;;;;;;5084751;28;20203;-44
2021/12/31 07:15:26;;;;;;;5.88;3.08;;;12.90;99.90;;;;;;5090089;28;20235;-44
2021/12/31 07:17:53;;;;;;;6.57;3.35;;;12.90;99.90;;;;;;5062908;28;20729;-44
2021/12/31 07:20:20;;;;;;;5.20;3.50;;;12.80;99.90;;;;;;5086801;28;20191;-44
2021/12/31 07:22:47;;;;;;;3.60;2.80;;;12.90;99.90;;;;;;5077113;27;20204;-48
2021/12/31 07:25:14;;;;;;;5.57;3.30;;;12.90;99.90;;;;;;5065854;28;20816;-48
2021/12/31 07:27:41;;;;;;;5.10;2.80;;;12.90;99.90;;;;;;5080178;28;20203;-48
2021/12/31 07:30:12;;;;;;;5.05;2.83;;;12.80;99.90;;;;;;5078457;28;20203;-48
2021/12/31 07:32:39;;;;;;;6.72;2.60;;;12.80;99.90;;;;;;5069167;28;20219;-49
2021/12/31 07:35:07;;;;;;;5.00;2.67;;;12.80;99.90;;;;;;5088845;28;20230;-48
2021/12/31 07:37:34;;;;;;;9.48;3.10;;;12.80;99.90;;;;;;5085858;27;20200;-48
2021/12/31 07:40:04;;;;;;;7.13;2.97;;;12.90;99.90;;;;;;5057628;28;20243;-48
2021/12/31 07:42:31;;;;;;;3.55;2.83;;;12.90;99.90;;;;;;5089106;28;20203;-49
2021/12/31 07:44:58;;;;;;;4.88;3.10;;;12.80;99.90;;;;;;5073428;28;20212;-48
2021/12/31 07:47:27;;;;;;;4.00;2.70;;;12.80;99.90;;;;;;5079160;28;20287;-49
2021/12/31 07:49:54;;;;;;;3.60;2.47;;;12.90;99.90;;;;;;5068483;28;20203;-48
2021/12/31 07:52:21;;;;;;;6.00;2.70;;;12.80;99.90;;;;;;5080597;27;20209;-48
2021/12/31 07:54:47;;;;;;;8.35;2.40;;;12.90;99.90;;;;;;5079413;28;20224;-48
2021/12/31 07:57:14;;;;;;;3.42;2.53;;;12.80;99.90;;;;;;5075968;28;20216;-48
2021/12/31 07:59:41;;;;;;;4.05;2.20;;;12.90;99.90;;;;;;5067497;27;20267;-49
2021/12/31 08:02:08;;;;;;;4.18;2.30;;;12.90;99.90;;;;;;5071092;28;20774;-48
2021/12/31 08:04:36;;;;;;;3.70;2.40;;;12.80;99.90;;;;;;5074552;28;20196;-44
2021/12/31 08:07:03;;;;;;;3.47;2.45;;;12.90;99.90;;;;;;5081960;28;20705;-44
2021/12/31 08:09:31;;;;;;;4.25;2.20;;;12.80;99.90;;;;;;5074086;28;20211;-44
2021/12/31 08:11:58;;;;;;;9.88;2.65;;;12.90;99.90;;;;;;5076545;28;20202;-44
2021/12/31 08:14:25;;;;;;;3.53;2.20;;;12.90;99.90;;;;;;5068948;28;20220;-43
2021/12/31 08:16:51;;;;;;;4.65;2.42;;;12.90;99.90;;;;;;5075596;28;20234;-43
2021/12/31 08:19:18;;;;;;;2.90;2.15;;;12.90;99.90;;;;;;5080753;28;20199;-44
2021/12/31 08:21:46;;;;;;;3.30;2.20;;;12.90;99.90;;;;;;5082314;27;20298;-43
2021/12/31 08:24:14;;;;;;;5.90;2.20;;;12.90;99.90;;;;;;5077411;27;20200;-45
2021/12/31 08:26:41;;;;;;;3.53;2.00;;;12.80;99.90;;;;;;5068946;28;20224;-43
2021/12/31 08:29:08;;;;;;;3.45;2.50;;;12.80;99.90;;;;;;5082536;28;20319;-44
2021/12/31 08:31:36;;;;;;;4.32;2.40;;;12.80;99.90;;;;;;5079823;28;20200;-43
2021/12/31 08:34:03;;;;;;;3.42;2.45;;;12.80;99.90;;;;;;5084277;28;20239;-43
2021/12/31 08:36:29;;;;;;;2.30;2.10;;;12.90;99.90;;;;;;5063594;28;20747;-43
2021/12/31 08:38:59;;;;;;;4.53;2.50;;;12.90;99.90;;;;;;5089619;28;20290;-44
2021/12/31 08:41:26;;;;;;;5.22;2.20;;;12.90;99.90;;;;;;5067484;27;20203;-43
2021/12/31 08:43:53;;;;;;;5.53;1.88;;;12.90;99.90;;;;;;5080287;28;20196;-43
2021/12/31 08:46:20;;;;;;;4.53;2.22;;;12.90;99.90;;;;;;5078837;28;20617;-43
2021/12/31 08:48:46;;;;;;;8.00;2.67;;;12.90;99.90;;;;;;5083235;28;20207;-43
2021/12/31 08:51:13;;;;;;;3.75;2.20;;;12.90;99.90;;;;;;5066140;28;20216;-43
2021/12/31 08:53:41;;;;;;;2.63;2.10;;;12.90;99.90;;;;;;5084315;28;20191;-44
2021/12/31 08:56:09;;;;;;;3.60;2.40;;;12.80;99.90;;;;;;5062659;28;20227;-43
2021/12/31 08:58:36;;;;;;;3.03;2.20;;;12.80;99.90;;;;;;5072158;28;20204;-43
2021/12/31 09:01:03;;;;;;;4.82;2.47;;;12.80;99.90;;;;;;5071159;28;20208;-44
2021/12/31 09:03:30;;;;;;;4.53;2.40;;;12.90;99.90;;;;;;5078204;28;20909;-43
2021/12/31 09:05:57;;;;;;;5.47;2.40;;;12.90;99.90;;;;;;5065446;28;20227;-43
2021/12/31 09:08:24;;;;;;;4.95;2.00;;;12.90;99.90;;;;;;5073751;28;20308;-43
2021/12/31 09:10:51;;;;;;;4.30;2.22;;;12.90;99.90;;;;;;5082695;28;20950;-43
2021/12/31 09:13:20;;;;;;;2.67;2.08;;;12.90;99.90;;;;;;5066321;28;20711;-43
2021/12/31 09:15:47;;;;;;;3.50;2.55;;;12.90;99.90;;;;;;5083498;28;20231;-43
2021/12/31 09:18:14;;;;;;;3.72;2.28;;;12.90;99.90;;;;;;5084726;28;20211;-43
2021/12/31 09:20:41;;;;;;;4.55;2.15;;;12.90;99.90;;;;;;5067842;28;20216;-43
2021/12/31 09:23:08;;;;;;;4.82;2.10;;;12.90;99.90;;;;;;5086392;28;20200;-43
2021/12/31 09:25:35;;;;;;;2.80;2.25;;;12.90;99.90;;;;;;5070656;28;20230;-48
2021/12/31 09:28:01;;;;;;;4.30;2.05;;;13.00;99.90;;;;;;5070942;28;20214;-46
2021/12/31 09:30:30;;;;;;;2.95;2.08;;;12.90;99.90;;;;;;5067936;28;20203;-49
2021/12/31 09:32:57;;;;;;;4.38;2.25;;;12.90;99.90;;;;;;5063400;28;20208;-49
2021/12/31 09:35:24;;;;;;;4.47;2.42;;;12.90;99.90;;;;;;5051921;28;20232;-43
2021/12/31 09:37:51;;;;;;;3.42;2.15;;;12.90;99.90;;;;;;5041413;28;20248;-40
2021/12/31 09:40:19;;;;;;;5.40;2.55;;;12.90;99.90;;;;;;5065531;28;20199;-44
2021/12/31 09:42:53;;;;;;;4.30;2.13;;;13.00;99.90;;;;;;5061686;28;20211;-43
2021/12/31 09:45:20;;;;;;;5.90;2.13;;;13.00;99.90;;;;;;5064379;28;20227;-43
2021/12/31 09:47:48;;;;;;;4.00;2.42;;;12.90;99.90;;;;;;5072393;28;20204;-44
2021/12/31 09:50:15;;;;;;;4.20;2.22;;;12.90;99.90;;;;;;5073462;28;20202;-43
2021/12/31 09:52:44;;;;;;;4.25;2.30;;;13.00;99.90;;;;;;5048118;28;20290;-43
2021/12/31 09:55:11;;;;;;;3.78;2.22;;;13.00;99.90;;;;;;5063603;28;20842;-43
2021/12/31 09:57:38;;;;;;;6.20;2.38;;;13.00;99.90;;;;;;5059464;28;20207;-43
2021/12/31 10:00:06;;;;;;;4.97;2.65;;;12.90;99.90;;;;;;5071930;28;20192;-43
2021/12/31 10:02:34;;;;;;;4.15;2.25;;;12.90;99.90;;;;;;5073499;28;20252;-43
2021/12/31 10:05:04;;;;;;;4.57;1.90;;;12.90;99.90;;;;;;5060070;28;20833;-44
2021/12/31 10:07:31;;;;;;;5.63;2.53;;;12.90;99.90;;;;;;5060800;28;20216;-43
2021/12/31 10:10:12;;;;;;;4.18;2.13;;;12.90;99.90;;;;;;5067190;27;20218;-43
2021/12/31 10:12:47;;;;;;;8.50;2.50;;;12.90;99.90;;;;;;5072842;28;20214;-43
2021/12/31 10:15:14;;;;;;;2.60;1.80;;;12.90;99.90;;;;;;5061907;28;20237;-43
2021/12/31 10:17:41;;;;;;;7.03;2.45;;;12.90;99.90;;;;;;5063642;28;20218;-49
2021/12/31 10:20:10;;;;;;;7.22;2.30;;;12.80;99.90;;;;;;5074812;28;20199;-48
2021/12/31 10:22:37;;;;;;;3.50;2.20;;;12.90;99.90;;;;;;5059491;28;20211;-48
2021/12/31 10:25:17;;;;;;;4.93;2.42;;;12.90;99.90;;;;;;5070102;28;20698;-38
2021/12/31 10:27:44;;;;;;;4.70;2.92;;;12.80;99.90;;;;;;5058550;28;20862;-38
2021/12/31 10:30:11;;;;;;;4.35;2.55;;;12.90;99.90;;;;;;5054325;28;20994;-41
2021/12/31 10:32:41;;;;;;;5.20;2.65;;;12.90;99.90;;;;;;5052874;28;20219;-41
2021/12/31 10:35:12;;;;;;;6.43;3.08;;;12.90;99.90;;;;;;5056237;28;22937;-41
2021/12/31 10:37:43;;;;;;;3.85;2.40;;;12.90;99.90;;;;;;5054410;28;20208;-41
2021/12/31 10:40:11;;;;;;;8.18;2.95;;;12.80;99.90;;;;;;5056029;28;20200;-40
2021/12/31 10:42:40;;;;;;;8.45;3.42;;;12.80;99.90;;;;;;5068730;28;20211;-41
2021/12/31 10:45:09;;;;;;;4.32;2.53;;;12.80;99.90;;;;;;5070701;28;20199;-41
2021/12/31 10:47:38;;;;;;;3.53;2.42;;;12.80;99.90;;;;;;5079966;28;20203;-41
2021/12/31 10:50:15;;;;;;;2.97;2.33;;;12.80;99.90;;;;;;5078134;28;20251;-41
2021/12/31 10:52:53;;;;;;;3.33;2.83;;;12.80;99.90;;;;;;5060861;28;20207;-41
2021/12/31 10:55:25;;;;;;;3.33;2.67;;;12.80;99.90;;;;;;5083950;28;20322;-41
2021/12/31 10:57:54;;;;;;;5.18;3.05;;;12.80;99.90;;;;;;5044828;28;20222;-41
2021/12/31 11:00:24;;;;;;;7.10;3.15;;;12.80;99.90;;;;;;5068906;28;20550;-41
2021/12/31 11:02:51;;;;;;;4.25;2.70;;;12.70;99.90;;;;;;5057412;28;20812;-41
2021/12/31 11:05:21;;;;;;;5.68;2.97;;;12.70;99.90;;;;;;5071921;28;20225;-41
2021/12/31 11:07:49;;;;;;;4.40;2.30;;;12.70;99.90;;;;;;5053319;28;20215;-41
2021/12/31 11:10:16;;;;;;;5.28;3.00;;;12.70;99.90;;;;;;5073125;28;20212;-49
2021/12/31 11:12:47;;;;;;;5.53;2.58;;;12.70;99.90;;;;;;5052639;28;20210;-49
2021/12/31 11:15:15;;;;;;;4.43;2.33;;;12.60;99.90;;;;;;5057724;28;20223;-48
2021/12/31 11:17:42;;;;;;;6.80;2.92;;;12.70;99.90;;;;;;5070073;28;20203;-49
2021/12/31 11:20:11;;;;;;;6.80;2.50;;;12.60;99.90;;;;;;5060923;28;20253;-49
2021/12/31 11:22:40;;;;;;;3.47;2.67;;;12.70;99.90;;;;;;5053095;28;20219;-49
2021/12/31 11:25:25;;;;;;;5.15;2.63;;;12.70;99.90;;;;;;5059496;28;20200;-49
2021/12/31 11:27:55;;;;;;;3.35;3.05;;;12.70;99.90;;;;;;5032416;27;20212;-49
2021/12/31 11:30:31;;;;;;;7.32;2.95;;;12.70;99.90;;;;;;5056002;28;20215;-49
2021/12/31 11:33:00;;;;;;;3.40;2.95;;;12.70;99.90;;;;;;5049856;28;20211;-48
2021/12/31 11:35:33;;;;;;;4.00;2.53;;;12.70;99.90;;;;;;5062426;27;20223;-46
2021/12/31 11:38:03;;;;;;;2.85;2.40;;;12.70;99.90;;;;;;5033013;28;20293;-47
2021/12/31 11:40:32;;;;;;;4.72;2.55;;;12.70;99.90;;;;;;5065208;28;20742;-47
2021/12/31 11:43:23;;;;;;;6.10;2.70;;;12.70;99.90;;;;;;5047827;28;20221;-47
2021/12/31 11:46:32;;;;;;;5.68;2.72;;;12.70;99.90;;;;;;5049108;28;20268;-39
2021/12/31 11:48:59;;;;;;;6.68;3.30;;;12.70;99.90;;;;;;5036996;28;20212;-39
2021/12/31 11:51:28;;;;;;;3.85;2.80;;;12.70;99.90;;;;;;5063470;27;20212;-39
2021/12/31 11:54:22;;;;;;;7.07;3.53;;;12.70;99.90;;;;;;5030917;28;20216;-39
2021/12/31 11:57:17;;;;;;;3.95;2.95;;;12.70;99.90;;;;;;5076888;28;20215;-39
2021/12/31 11:59:47;;;;;;;3.63;3.30;;;12.70;99.90;;;;;;5054533;28;20296;-39
2021/12/31 12:02:17;;;;;;;4.72;3.10;;;12.60;99.90;;;;;;5048288;28;20199;-39
2021/12/31 12:05:08;;;;;;;6.80;3.58;;;12.60;99.90;;;;;;5074401;28;20730;-39
2021/12/31 12:07:36;;;;;;;4.78;3.22;;;12.70;99.90;;;;;;5064666;28;20208;-39
2021/12/31 12:10:26;;;;;;;4.53;3.00;;;12.70;99.90;;;;;;5051110;28;20211;-39
2021/12/31 12:12:56;;;;;;;5.25;2.95;;;12.70;99.90;;;;;;5046093;28;20215;-39
2021/12/31 12:15:27;;;;;;;9.65;3.28;;;12.70;99.90;;;;;;5053924;28;20420;-39
2021/12/31 12:17:54;;;;;;;7.18;3.60;;;12.70;99.90;;;;;;5052521;28;20318;-39
2021/12/31 12:20:23;;;;;;;6.35;2.97;;;12.70;99.90;;;;;;5049450;28;20200;-39
2021/12/31 12:22:53;;;;;;;5.00;3.08;;;12.70;99.90;;;;;;5057988;28;20208;-39
2021/12/31 12:25:23;;;;;;;4.38;2.83;;;12.70;99.90;;;;;;5057644;28;20228;-39
2021/12/31 12:27:52;;;;;;;4.32;2.97;;;12.70;99.90;;;;;;5063213;28;20216;-39
2021/12/31 12:30:20;;;;;;;7.18;3.30;;;12.70;99.90;;;;;;5044872;28;20880;-47
2021/12/31 12:33:05;;;;;;;5.13;3.10;;;12.70;99.90;;;;;;5043422;28;20211;-47
2021/12/31 12:35:33;;;;;;;6.20;3.30;;;12.70;99.90;;;;;;5044505;28;20817;-47
2021/12/31 12:38:02;;;;;;;6.25;3.78;;;12.70;99.90;;;;;;5062162;28;21703;-42
2021/12/31 12:40:39;;;;;;;5.10;3.38;;;12.70;99.90;;;;;;5030925;28;20199;-43
2021/12/31 12:43:08;;;;;;;7.38;3.35;;;12.70;99.90;;;;;;5065996;28;20208;-43
2021/12/31 12:45:39;;;;;;;7.93;3.45;;;12.70;99.90;;;;;;5050679;28;20289;-43
2021/12/31 12:48:06;;;;;;;4.35;3.10;;;12.70;99.90;;;;;;5061424;28;20221;-42
2021/12/31 12:50:33;;;;;;;4.13;2.97;;;12.70;99.90;;;;;;5059614;28;20291;-43
2021/12/31 12:53:00;;;;;;;3.58;3.20;;;12.60;99.90;;;;;;5068210;28;20214;-43
2021/12/31 12:55:28;;;;;;;7.18;3.40;;;12.60;99.90;;;;;;5048431;28;20226;-43